Time;durP1;ratioP1;P1;durP2;ratioP2;P2;SDS_P1;SDS_P2;PMS_P1;PMS_P2;Temp;Humidity;BMP_temperature;BMP_pressure;BME280_temperature;BME280_humidity;BME280_pressure;Samples;Min_cycle;Max_cycle;Signal;HPM_P1;HPM_P2
2021/05/24 00:01:37;;;;;;;3.67;2.67;;;;;;;;;;5030134;28;20178;-60
2021/05/24 00:04:07;;;;;;;5.33;2.90;;;;;;;;;;5019746;28;20198;-61
2021/05/24 00:06:34;;;;;;;3.93;2.50;;;;;;;;;;5023350;28;20268;-59
2021/05/24 00:09:02;;;;;;;3.97;2.40;;;;;;;;;;5008765;28;20191;-61
2021/05/24 00:11:32;;;;;;;8.70;2.20;;;;;;;;;;5030046;28;20694;-61
2021/05/24 00:14:03;;;;;;;4.23;2.40;;;;;;;;;;5017912;28;20266;-61
2021/05/24 00:16:30;;;;;;;2.47;1.83;;;;;;;;;;5018360;28;20321;-60
2021/05/24 00:18:56;;;;;;;3.47;2.53;;;;;;;;;;5018137;28;20202;-60
2021/05/24 00:21:23;;;;;;;3.77;2.13;;;;;;;;;;5011670;28;20179;-62
2021/05/24 00:23:51;;;;;;;2.87;2.00;;;;;;;;;;5026348;28;20250;-61
2021/05/24 00:26:20;;;;;;;3.83;2.30;;;;;;;;;;5014125;28;20241;-60
2021/05/24 00:28:48;;;;;;;5.23;2.50;;;;;;;;;;5021930;28;20190;-62
2021/05/24 00:31:16;;;;;;;3.03;2.63;;;;;;;;;;5017478;28;20198;-61
2021/05/24 00:33:41;;;;;;;3.03;2.27;;;;;;;;;;5005606;28;20247;-59
2021/05/24 00:36:09;;;;;;;2.83;2.20;;;;;;;;;;5016036;28;20211;-59
2021/05/24 00:38:37;;;;;;;2.90;2.43;;;;;;;;;;5007658;28;20196;-59
2021/05/24 00:41:02;;;;;;;2.30;2.10;;;;;;;;;;5024312;28;20202;-59
2021/05/24 00:43:32;;;;;;;8.93;3.00;;;;;;;;;;5029398;28;20194;-60
2021/05/24 00:46:02;;;;;;;4.50;2.27;;;;;;;;;;5017863;28;20687;-59
2021/05/24 00:48:29;;;;;;;5.73;2.50;;;;;;;;;;5024126;28;20205;-59
2021/05/24 00:50:54;;;;;;;2.50;2.30;;;;;;;;;;5021665;28;20692;-59
2021/05/24 00:53:22;;;;;;;4.70;2.30;;;;;;;;;;5027820;28;20210;-59
2021/05/24 00:55:52;;;;;;;4.27;2.17;;;;;;;;;;5017842;28;20298;-59
2021/05/24 00:58:20;;;;;;;3.37;2.30;;;;;;;;;;5016911;28;20289;-61
2021/05/24 01:00:52;;;;;;;3.93;2.20;;;;;;;;;;5018500;28;20271;-59
2021/05/24 01:03:17;;;;;;;2.30;2.10;;;;;;;;;;5020639;28;20290;-61
2021/05/24 01:05:47;;;;;;;2.73;2.30;;;;;;;;;;5023137;28;20894;-61
2021/05/24 01:08:15;;;;;;;4.70;2.20;;;;;;;;;;5008800;28;20210;-61
2021/05/24 01:10:44;;;;;;;5.70;2.30;;;;;;;;;;5025487;28;20240;-61
2021/05/24 01:13:16;;;;;;;2.90;2.20;;;;;;;;;;4984420;28;20310;-61
2021/05/24 01:15:43;;;;;;;2.97;2.17;;;;;;;;;;5024949;28;20961;-60
2021/05/24 01:18:09;;;;;;;3.90;2.50;;;;;;;;;;5019046;28;20718;-60
2021/05/24 01:20:39;;;;;;;6.07;2.73;;;;;;;;;;5006441;28;20297;-59
2021/05/24 01:23:11;;;;;;;4.57;2.03;;;;;;;;;;5024475;28;20202;-59
2021/05/24 01:25:42;;;;;;;4.07;2.20;;;;;;;;;;5022407;28;20234;-61
2021/05/24 01:28:11;;;;;;;4.13;2.23;;;;;;;;;;5018649;28;20245;-59
2021/05/24 01:30:38;;;;;;;3.93;2.00;;;;;;;;;;5022562;28;20704;-60
2021/05/24 01:33:08;;;;;;;2.53;2.23;;;;;;;;;;5022002;28;20211;-61
2021/05/24 01:35:38;;;;;;;2.37;2.13;;;;;;;;;;5021199;28;20210;-60
2021/05/24 01:38:09;;;;;;;3.93;2.80;;;;;;;;;;5025057;28;20262;-61
2021/05/24 01:40:40;;;;;;;6.93;2.30;;;;;;;;;;5005728;28;20232;-61
2021/05/24 01:43:08;;;;;;;5.23;2.37;;;;;;;;;;5001366;28;20295;-60
2021/05/24 01:45:38;;;;;;;3.13;2.30;;;;;;;;;;5004235;28;20686;-62
2021/05/24 01:48:06;;;;;;;2.30;1.93;;;;;;;;;;5022971;28;20183;-59
2021/05/24 01:50:39;;;;;;;3.80;2.10;;;;;;;;;;5014910;28;20540;-59
2021/05/24 01:53:06;;;;;;;2.83;2.17;;;;;;;;;;5024217;28;20301;-60
2021/05/24 01:55:36;;;;;;;3.77;2.13;;;;;;;;;;5020754;28;20293;-61
2021/05/24 01:58:07;;;;;;;2.97;2.50;;;;;;;;;;5000629;28;20555;-60
2021/05/24 02:00:33;;;;;;;2.33;2.00;;;;;;;;;;5008994;28;20240;-60
2021/05/24 02:02:58;;;;;;;2.93;2.10;;;;;;;;;;5001901;28;20179;-60
2021/05/24 02:05:25;;;;;;;2.93;2.00;;;;;;;;;;5021178;28;20582;-62
2021/05/24 02:07:56;;;;;;;3.87;2.03;;;;;;;;;;5023835;28;20199;-60
2021/05/24 02:10:25;;;;;;;4.10;2.10;;;;;;;;;;5018111;28;20615;-61
2021/05/24 02:12:54;;;;;;;2.40;2.10;;;;;;;;;;5005803;28;20211;-60
2021/05/24 02:15:26;;;;;;;3.13;2.20;;;;;;;;;;5024522;28;20636;-60
2021/05/24 02:17:54;;;;;;;4.00;1.90;;;;;;;;;;5024299;28;20759;-59
2021/05/24 02:20:24;;;;;;;2.13;1.90;;;;;;;;;;5029718;28;20610;-59
2021/05/24 02:22:55;;;;;;;3.67;2.07;;;;;;;;;;5027601;28;20647;-61
2021/05/24 02:25:21;;;;;;;3.20;2.30;;;;;;;;;;5006242;28;20219;-60
2021/05/24 02:27:48;;;;;;;2.20;2.00;;;;;;;;;;5021268;28;20226;-60
2021/05/24 02:30:18;;;;;;;3.87;2.27;;;;;;;;;;5005234;28;20194;-60
2021/05/24 02:32:44;;;;;;;2.40;1.90;;;;;;;;;;5022896;28;20839;-60
2021/05/24 02:35:16;;;;;;;2.67;1.87;;;;;;;;;;5025804;28;20214;-60
2021/05/24 02:37:46;;;;;;;4.90;2.20;;;;;;;;;;5009045;28;20244;-59
2021/05/24 02:40:14;;;;;;;2.30;1.63;;;;;;;;;;5026670;28;20639;-62
2021/05/24 02:42:44;;;;;;;6.03;1.80;;;;;;;;;;5028995;28;20182;-62
2021/05/24 02:45:16;;;;;;;3.10;1.90;;;;;;;;;;5009995;28;20217;-60
2021/05/24 02:47:43;;;;;;;3.80;2.30;;;;;;;;;;5022086;28;20269;-61
2021/05/24 02:50:11;;;;;;;4.60;1.83;;;;;;;;;;5017469;28;20191;-60
2021/05/24 02:52:41;;;;;;;4.80;1.93;;;;;;;;;;5010888;28;20301;-60
2021/05/24 02:55:11;;;;;;;2.63;1.83;;;;;;;;;;5028289;28;20214;-61
2021/05/24 02:57:38;;;;;;;2.20;2.00;;;;;;;;;;5020391;28;20205;-62
2021/05/24 03:00:08;;;;;;;3.13;2.00;;;;;;;;;;5024299;28;20815;-59
2021/05/24 03:02:45;;;;;;;2.17;1.90;;;;;;;;;;5024068;28;20567;-61
2021/05/24 03:05:17;;;;;;;2.90;1.80;;;;;;;;;;5052472;23;20221;-55
2021/05/24 03:07:43;;;;;;;4.17;2.03;;;;;;;;;;4969459;28;20215;-55
2021/05/24 03:10:09;;;;;;;2.43;2.20;;;;;;;;;;4964758;28;20189;-54
2021/05/24 03:12:40;;;;;;;3.97;2.00;;;;;;;;;;4967871;28;20228;-54
2021/05/24 03:15:06;;;;;;;3.70;1.70;;;;;;;;;;4967950;28;20737;-54
2021/05/24 03:17:31;;;;;;;2.17;1.60;;;;;;;;;;4966874;28;20723;-55
2021/05/24 03:19:57;;;;;;;1.67;1.43;;;;;;;;;;4965833;28;20194;-55
2021/05/24 03:22:22;;;;;;;3.23;1.93;;;;;;;;;;4965749;28;20197;-54
2021/05/24 03:24:48;;;;;;;1.60;1.50;;;;;;;;;;4968734;28;20204;-55
2021/05/24 03:27:13;;;;;;;3.10;1.70;;;;;;;;;;4978491;28;20263;-55
2021/05/24 03:29:38;;;;;;;2.27;1.60;;;;;;;;;;4979519;28;20248;-55
2021/05/24 03:32:04;;;;;;;2.70;1.73;;;;;;;;;;4968094;28;20273;-54
2021/05/24 03:34:29;;;;;;;3.87;1.87;;;;;;;;;;4961818;28;20288;-53
2021/05/24 03:36:57;;;;;;;2.03;1.53;;;;;;;;;;4971724;28;20219;-55
2021/05/24 03:39:23;;;;;;;3.83;1.47;;;;;;;;;;4966332;28;20201;-54
2021/05/24 03:41:48;;;;;;;2.87;1.00;;;;;;;;;;4968640;28;20228;-54
2021/05/24 03:44:14;;;;;;;2.77;1.43;;;;;;;;;;4965326;28;20856;-56
2021/05/24 03:46:42;;;;;;;3.90;1.57;;;;;;;;;;4982201;28;20592;-55
2021/05/24 03:49:07;;;;;;;2.33;1.53;;;;;;;;;;4976538;28;20192;-54
2021/05/24 03:51:32;;;;;;;4.00;1.80;;;;;;;;;;4965833;28;20224;-57
2021/05/24 03:53:59;;;;;;;4.37;2.07;;;;;;;;;;4968477;28;20197;-54
2021/05/24 03:56:24;;;;;;;2.30;1.60;;;;;;;;;;4968266;28;20610;-54
2021/05/24 03:58:49;;;;;;;4.40;2.67;;;;;;;;;;4966131;28;20412;-56
2021/05/24 04:01:15;;;;;;;2.17;2.00;;;;;;;;;;4962190;28;20276;-53
2021/05/24 04:03:44;;;;;;;2.83;1.90;;;;;;;;;;4969190;28;20763;-56
2021/05/24 04:06:12;;;;;;;2.70;1.80;;;;;;;;;;4962664;28;20217;-54
2021/05/24 04:08:41;;;;;;;4.20;1.97;;;;;;;;;;4971564;28;20665;-56
2021/05/24 04:11:09;;;;;;;4.50;1.93;;;;;;;;;;4965183;28;20186;-53
2021/05/24 04:13:35;;;;;;;4.20;1.73;;;;;;;;;;4967423;28;20590;-55
2021/05/24 04:16:00;;;;;;;5.40;1.80;;;;;;;;;;4961835;28;20205;-54
2021/05/24 04:18:29;;;;;;;3.77;1.97;;;;;;;;;;4971099;28;20192;-55
2021/05/24 04:20:54;;;;;;;3.73;1.93;;;;;;;;;;4964054;28;20184;-54
2021/05/24 04:23:22;;;;;;;2.20;1.83;;;;;;;;;;4964461;28;20196;-55
2021/05/24 04:25:48;;;;;;;3.73;2.00;;;;;;;;;;4962082;28;20299;-54
2021/05/24 04:28:14;;;;;;;2.97;1.80;;;;;;;;;;4969736;28;20602;-54
2021/05/24 04:30:40;;;;;;;3.37;2.10;;;;;;;;;;4965683;28;20184;-54
2021/05/24 04:33:06;;;;;;;3.30;1.93;;;;;;;;;;4965119;28;20211;-54
2021/05/24 04:35:33;;;;;;;4.53;1.80;;;;;;;;;;4961572;28;20296;-55
2021/05/24 04:37:58;;;;;;;1.67;1.20;;;;;;;;;;4969995;28;20593;-55
2021/05/24 04:40:24;;;;;;;1.53;1.20;;;;;;;;;;4964430;28;20192;-52
2021/05/24 04:42:49;;;;;;;1.27;1.17;;;;;;;;;;4967356;28;20223;-54
2021/05/24 04:45:15;;;;;;;2.73;0.83;;;;;;;;;;4961046;28;20212;-53
2021/05/24 04:47:41;;;;;;;0.80;0.80;;;;;;;;;;4969750;28;20274;-55
2021/05/24 04:50:07;;;;;;;2.90;1.10;;;;;;;;;;4964538;28;20181;-54
2021/05/24 04:52:35;;;;;;;7.83;1.23;;;;;;;;;;4979431;28;20207;-54
2021/05/24 04:55:00;;;;;;;5.20;1.87;;;;;;;;;;4963558;28;20206;-54
2021/05/24 04:57:26;;;;;;;1.90;1.17;;;;;;;;;;4968227;28;20673;-54
2021/05/24 04:59:51;;;;;;;2.07;1.30;;;;;;;;;;4979580;28;20242;-53
2021/05/24 05:02:19;;;;;;;2.30;1.00;;;;;;;;;;4967821;28;20219;-54
2021/05/24 05:04:45;;;;;;;4.03;0.87;;;;;;;;;;4965571;28;20193;-55
2021/05/24 05:07:11;;;;;;;2.07;1.20;;;;;;;;;;4963389;28;20221;-53
2021/05/24 05:09:36;;;;;;;4.10;1.10;;;;;;;;;;4964765;28;20188;-55
2021/05/24 05:12:01;;;;;;;1.53;1.17;;;;;;;;;;4976694;28;20323;-54
2021/05/24 05:14:27;;;;;;;2.40;1.60;;;;;;;;;;4963520;28;20199;-53
2021/05/24 05:16:57;;;;;;;1.97;1.70;;;;;;;;;;4963520;28;20317;-54
2021/05/24 05:19:22;;;;;;;4.03;0.90;;;;;;;;;;4968707;28;20256;-55
2021/05/24 05:21:49;;;;;;;1.40;0.90;;;;;;;;;;4958681;28;20225;-55
2021/05/24 05:24:14;;;;;;;0.90;0.67;;;;;;;;;;4959225;28;20185;-54
2021/05/24 05:26:43;;;;;;;1.43;1.33;;;;;;;;;;4958554;28;20223;-57
2021/05/24 05:29:08;;;;;;;1.00;1.00;;;;;;;;;;4964100;28;20185;-55
2021/05/24 05:31:34;;;;;;;3.27;0.97;;;;;;;;;;4962927;28;20223;-54
2021/05/24 05:33:59;;;;;;;1.27;1.00;;;;;;;;;;4975549;28;20186;-53
2021/05/24 05:36:26;;;;;;;1.23;1.03;;;;;;;;;;4973824;28;20219;-53
2021/05/24 05:38:51;;;;;;;2.23;1.00;;;;;;;;;;4966516;28;20228;-54
2021/05/24 05:41:17;;;;;;;2.50;2.03;;;;;;;;;;4966590;28;20192;-56
2021/05/24 05:43:42;;;;;;;4.07;1.33;;;;;;;;;;4967584;28;20184;-54
2021/05/24 05:46:10;;;;;;;0.97;0.87;;;;;;;;;;4978997;28;20847;-55
2021/05/24 05:48:38;;;;;;;1.77;1.00;;;;;;;;;;4962158;28;20192;-55
2021/05/24 05:51:06;;;;;;;2.23;1.20;;;;;;;;;;4964999;28;20231;-55
2021/05/24 05:53:32;;;;;;;2.60;1.47;;;;;;;;;;4978062;28;20799;-55
2021/05/24 05:56:02;;;;;;;4.03;1.30;;;;;;;;;;4964322;28;20209;-53
2021/05/24 05:58:27;;;;;;;0.77;0.77;;;;;;;;;;4961768;28;20181;-55
2021/05/24 06:00:53;;;;;;;2.70;1.20;;;;;;;;;;4960406;28;20200;-55
2021/05/24 06:03:18;;;;;;;2.73;1.03;;;;;;;;;;4964801;28;20193;-53
2021/05/24 06:05:44;;;;;;;2.20;1.30;;;;;;;;;;4965019;28;20216;-57
2021/05/24 06:08:11;;;;;;;2.50;1.50;;;;;;;;;;4964145;28;20207;-55
2021/05/24 06:10:37;;;;;;;0.73;0.73;;;;;;;;;;4963891;28;20268;-56
2021/05/24 06:13:03;;;;;;;1.10;0.73;;;;;;;;;;4964032;28;20648;-57
2021/05/24 06:15:30;;;;;;;0.83;0.50;;;;;;;;;;4965902;28;20831;-54
2021/05/24 06:17:56;;;;;;;1.20;0.80;;;;;;;;;;4966420;28;20696;-53
2021/05/24 06:20:21;;;;;;;0.70;0.70;;;;;;;;;;4967254;28;20185;-56
2021/05/24 06:22:48;;;;;;;1.17;1.07;;;;;;;;;;4963347;28;20181;-55
2021/05/24 06:25:14;;;;;;;0.67;0.67;;;;;;;;;;4965631;28;20219;-55
2021/05/24 06:27:42;;;;;;;0.50;0.50;;;;;;;;;;4961443;28;20653;-54
2021/05/24 06:30:10;;;;;;;1.23;0.57;;;;;;;;;;4965577;28;20177;-54
2021/05/24 06:32:35;;;;;;;1.47;0.90;;;;;;;;;;4963977;28;20205;-55
2021/05/24 06:35:01;;;;;;;0.80;0.63;;;;;;;;;;4965279;28;20188;-56
2021/05/24 06:37:28;;;;;;;0.83;0.70;;;;;;;;;;4960993;28;20209;-56
2021/05/24 06:39:54;;;;;;;1.70;1.10;;;;;;;;;;4964118;28;20188;-55
2021/05/24 06:42:19;;;;;;;1.67;0.80;;;;;;;;;;4964305;28;20194;-53
2021/05/24 06:44:45;;;;;;;0.77;0.77;;;;;;;;;;4966097;28;20580;-54
2021/05/24 06:47:11;;;;;;;1.37;0.73;;;;;;;;;;4977143;28;20219;-56
2021/05/24 06:49:36;;;;;;;0.80;0.60;;;;;;;;;;4960518;28;20196;-54
2021/05/24 06:52:03;;;;;;;0.50;0.50;;;;;;;;;;4959443;28;20783;-54
2021/05/24 06:54:28;;;;;;;1.40;0.80;;;;;;;;;;4964565;28;20279;-55
2021/05/24 06:56:54;;;;;;;3.20;0.73;;;;;;;;;;4959296;28;20283;-55
2021/05/24 06:59:21;;;;;;;1.20;0.80;;;;;;;;;;4970004;28;20272;-57
2021/05/24 07:01:47;;;;;;;3.50;0.93;;;;;;;;;;4968580;28;20198;-56
2021/05/24 07:04:12;;;;;;;0.93;0.80;;;;;;;;;;4968394;28;20279;-57
2021/05/24 07:06:37;;;;;;;1.10;0.73;;;;;;;;;;4972804;28;20843;-56
2021/05/24 07:09:04;;;;;;;1.30;1.00;;;;;;;;;;4962398;28;20243;-53
2021/05/24 07:11:29;;;;;;;0.47;0.47;;;;;;;;;;4968756;28;20582;-55
2021/05/24 07:13:54;;;;;;;1.87;0.67;;;;;;;;;;4969774;28;20200;-54
2021/05/24 07:16:19;;;;;;;1.67;0.95;;;;;;;;;;4970037;28;20213;-56
2021/05/24 07:18:45;;;;;;;0.63;0.60;;;;;;;;;;4967056;28;20193;-56
2021/05/24 07:21:10;;;;;;;1.48;0.88;;;;;;;;;;4982201;28;20284;-55
2021/05/24 07:23:35;;;;;;;1.02;0.80;;;;;;;;;;4960699;28;20189;-57
2021/05/24 07:26:01;;;;;;;0.80;0.80;;;;;;;;;;4969072;28;20248;-56
2021/05/24 07:28:27;;;;;;;2.65;0.82;;;;;;;;;;4965616;28;20191;-57
2021/05/24 07:30:52;;;;;;;1.15;0.70;;;;;;;;;;4965535;28;20193;-57
2021/05/24 07:33:18;;;;;;;0.80;0.80;;;;;;;;;;4957686;28;21652;-55
2021/05/24 07:35:43;;;;;;;1.13;0.77;;;;;;;;;;4967957;28;20208;-57
2021/05/24 07:38:09;;;;;;;0.88;0.70;;;;;;;;;;4963478;28;20581;-58
2021/05/24 07:40:37;;;;;;;0.70;0.70;;;;;;;;;;4959840;28;20700;-57
2021/05/24 07:43:03;;;;;;;3.13;0.70;;;;;;;;;;4969601;28;20231;-57
2021/05/24 07:45:30;;;;;;;0.80;0.77;;;;;;;;;;4964144;28;20704;-57
2021/05/24 07:47:58;;;;;;;1.27;0.70;;;;;;;;;;4967518;28;20220;-57
2021/05/24 07:50:24;;;;;;;0.90;0.70;;;;;;;;;;4968797;28;20601;-57
2021/05/24 07:52:50;;;;;;;1.08;0.80;;;;;;;;;;4959224;28;20792;-58
2021/05/24 07:55:15;;;;;;;1.85;0.70;;;;;;;;;;4968422;28;20203;-58
2021/05/24 07:57:42;;;;;;;3.00;1.33;;;;;;;;;;4982467;28;20198;-57
2021/05/24 08:00:09;;;;;;;1.65;0.80;;;;;;;;;;4969661;28;20195;-58
2021/05/24 08:02:39;;;;;;;2.50;0.57;;;;;;;;;;4969325;28;20173;-57
2021/05/24 08:05:05;;;;;;;2.20;0.77;;;;;;;;;;4969036;28;20188;-58
2021/05/24 08:07:30;;;;;;;0.60;0.60;;;;;;;;;;4971782;28;20708;-57
2021/05/24 08:09:55;;;;;;;0.85;0.70;;;;;;;;;;4970292;28;20669;-57
2021/05/24 08:12:20;;;;;;;1.85;0.70;;;;;;;;;;4983954;28;20287;-57
2021/05/24 08:14:46;;;;;;;1.55;0.80;;;;;;;;;;4969050;28;20646;-55
2021/05/24 08:17:11;;;;;;;1.95;1.00;;;;;;;;;;4969972;28;20212;-57
2021/05/24 08:19:37;;;;;;;1.45;0.80;;;;;;;;;;4969586;28;20211;-55
2021/05/24 08:22:02;;;;;;;1.35;1.25;;;;;;;;;;4969610;28;20193;-57
2021/05/24 08:24:27;;;;;;;1.35;0.70;;;;;;;;;;4982001;28;20704;-58
2021/05/24 08:26:53;;;;;;;1.63;0.65;;;;;;;;;;4969342;28;20259;-57
2021/05/24 08:29:18;;;;;;;1.40;0.80;;;;;;;;;;4963676;28;20208;-57
2021/05/24 08:31:46;;;;;;;0.60;0.60;;;;;;;;;;4965990;28;20307;-56
2021/05/24 08:34:12;;;;;;;2.55;0.77;;;;;;;;;;4969366;28;20258;-57
2021/05/24 08:36:38;;;;;;;0.95;0.60;;;;;;;;;;4984921;28;20208;-56
2021/05/24 08:39:07;;;;;;;2.40;0.55;;;;;;;;;;4970309;28;20189;-56
2021/05/24 08:41:33;;;;;;;1.15;0.90;;;;;;;;;;4965366;28;20191;-57
2021/05/24 08:43:58;;;;;;;1.88;0.90;;;;;;;;;;4968480;28;20196;-58
2021/05/24 08:46:25;;;;;;;0.82;0.70;;;;;;;;;;4969242;28;20217;-57
2021/05/24 08:48:51;;;;;;;0.98;0.80;;;;;;;;;;4965291;28;20192;-57
2021/05/24 08:51:16;;;;;;;0.80;0.60;;;;;;;;;;4967357;28;20605;-56
2021/05/24 08:53:41;;;;;;;2.20;0.80;;;;;;;;;;4969830;28;20291;-57
2021/05/24 08:56:08;;;;;;;0.55;0.50;;;;;;;;;;4968745;28;20216;-57
2021/05/24 08:58:33;;;;;;;0.63;0.60;;;;;;;;;;4965789;28;20188;-57
2021/05/24 09:00:59;;;;;;;1.10;0.68;;;;;;;;;;4964908;28;20320;-56
2021/05/24 09:03:26;;;;;;;1.40;1.00;;;;;;;;;;4969928;28;20566;-57
2021/05/24 09:05:53;;;;;;;1.52;0.82;;;;;;;;;;4965348;28;20835;-57
2021/05/24 09:08:32;;;;;;;1.33;0.60;;;;;;;;;;4969154;28;20331;-56
2021/05/24 09:10:57;;;;;;;0.73;0.65;;;;;;;;;;4966614;28;20243;-56
2021/05/24 09:13:22;;;;;;;0.68;0.50;;;;;;;;;;4964944;28;20204;-55
2021/05/24 09:15:48;;;;;;;1.10;0.60;;;;;;;;;;4967855;28;20224;-56
2021/05/24 09:18:17;;;;;;;1.80;0.70;;;;;;;;;;4966425;28;20931;-56
2021/05/24 09:20:45;;;;;;;0.50;0.50;;;;;;;;;;4965683;28;20193;-56
2021/05/24 09:23:31;;;;;;;2.67;0.90;;;;;;;;;;4965881;28;20189;-55
2021/05/24 09:26:06;;;;;;;0.65;0.63;;;;;;;;;;4963840;28;20247;-56
2021/05/24 09:28:49;;;;;;;0.63;0.60;;;;;;;;;;4967147;28;20216;-56
2021/05/24 09:31:22;;;;;;;0.40;0.40;;;;;;;;;;4976027;28;20193;-55
2021/05/24 09:33:57;;;;;;;0.68;0.57;;;;;;;;;;4969213;28;20212;-54
2021/05/24 09:36:23;;;;;;;1.27;0.60;;;;;;;;;;4964092;28;20807;-56
2021/05/24 09:38:52;;;;;;;0.50;0.50;;;;;;;;;;4966479;28;20271;-56
2021/05/24 09:41:20;;;;;;;3.85;0.80;;;;;;;;;;4967160;28;20786;-56
2021/05/24 09:43:50;;;;;;;0.73;0.52;;;;;;;;;;4964435;28;20649;-56
2021/05/24 09:46:20;;;;;;;1.23;0.60;;;;;;;;;;4965816;28;20255;-55
2021/05/24 09:48:56;;;;;;;0.52;0.52;;;;;;;;;;4967939;28;20192;-57
2021/05/24 09:51:26;;;;;;;2.25;0.65;;;;;;;;;;4976739;28;20196;-54
2021/05/24 09:54:07;;;;;;;0.70;0.70;;;;;;;;;;4967662;28;20188;-54
2021/05/24 09:56:37;;;;;;;0.60;0.60;;;;;;;;;;4979070;28;20735;-56
2021/05/24 09:59:18;;;;;;;1.73;0.63;;;;;;;;;;4963571;28;20599;-56
2021/05/24 10:01:47;;;;;;;1.77;0.60;;;;;;;;;;4963787;28;20188;-56
2021/05/24 10:04:19;;;;;;;0.55;0.52;;;;;;;;;;4967094;28;20245;-56
2021/05/24 10:06:44;;;;;;;0.50;0.50;;;;;;;;;;4963389;28;20243;-56
2021/05/24 10:09:12;;;;;;;0.70;0.70;;;;;;;;;;4979664;28;20247;-56
2021/05/24 10:11:43;;;;;;;1.05;0.60;;;;;;;;;;4977403;28;20260;-56
2021/05/24 10:14:10;;;;;;;1.77;0.60;;;;;;;;;;4968802;28;20650;-56
2021/05/24 10:16:39;;;;;;;1.38;0.63;;;;;;;;;;4964553;28;20301;-56
2021/05/24 10:19:10;;;;;;;0.85;0.70;;;;;;;;;;4966924;28;20196;-54
2021/05/24 10:21:35;;;;;;;0.75;0.70;;;;;;;;;;4966621;28;20251;-55
2021/05/24 10:24:01;;;;;;;0.47;0.47;;;;;;;;;;4966553;28;20189;-57
2021/05/24 10:26:28;;;;;;;0.90;0.55;;;;;;;;;;4965460;28;20215;-56
2021/05/24 10:28:56;;;;;;;2.92;0.60;;;;;;;;;;4961968;28;20601;-56
2021/05/24 10:31:28;;;;;;;1.75;0.65;;;;;;;;;;4968511;28;20201;-56
2021/05/24 10:33:54;;;;;;;1.20;0.80;;;;;;;;;;4969226;28;20275;-56
2021/05/24 10:36:25;;;;;;;0.73;0.60;;;;;;;;;;4969687;28;20295;-56
2021/05/24 10:39:04;;;;;;;0.77;0.65;;;;;;;;;;4984634;28;20194;-54
2021/05/24 10:41:55;;;;;;;1.58;0.77;;;;;;;;;;4970316;28;20192;-55
2021/05/24 10:44:23;;;;;;;0.88;0.50;;;;;;;;;;4966380;28;20201;-54
2021/05/24 10:46:53;;;;;;;0.80;0.60;;;;;;;;;;4971488;28;20708;-56
2021/05/24 10:49:26;;;;;;;0.60;0.55;;;;;;;;;;4968160;28;20209;-56
2021/05/24 10:51:52;;;;;;;0.70;0.70;;;;;;;;;;4965183;28;20299;-53
2021/05/24 10:54:20;;;;;;;0.57;0.57;;;;;;;;;;4970899;28;20196;-57
2021/05/24 10:57:06;;;;;;;0.65;0.60;;;;;;;;;;4966882;28;20299;-54
2021/05/24 10:59:45;;;;;;;0.70;0.60;;;;;;;;;;4970683;28;20193;-53
2021/05/24 11:02:28;;;;;;;0.60;0.60;;;;;;;;;;4968125;28;20653;-56
2021/05/24 11:05:21;;;;;;;0.95;0.50;;;;;;;;;;4960875;28;20261;-55
2021/05/24 11:07:49;;;;;;;0.80;0.80;;;;;;;;;;4986316;28;20185;-57
2021/05/24 11:10:17;;;;;;;0.50;0.50;;;;;;;;;;4962027;28;20207;-55
2021/05/24 11:12:54;;;;;;;0.65;0.60;;;;;;;;;;4980189;28;20292;-56
2021/05/24 11:15:34;;;;;;;0.50;0.50;;;;;;;;;;4959328;28;20332;-54
2021/05/24 11:20:29;;;;;;;0.55;0.55;;;;;;;;;;4965597;28;20279;-54
2021/05/24 11:26:14;;;;;;;0.50;0.50;;;;;;;;;;4961502;28;20298;-54
2021/05/24 11:28:49;;;;;;;0.55;0.52;;;;;;;;;;4969183;28;20212;-54
2021/05/24 11:31:19;;;;;;;1.70;0.65;;;;;;;;;;4970233;28;20915;-52
2021/05/24 11:33:50;;;;;;;0.40;0.40;;;;;;;;;;4965211;28;20226;-53
2021/05/24 11:36:39;;;;;;;1.08;0.65;;;;;;;;;;4966154;28;20299;-53
2021/05/24 11:39:07;;;;;;;2.45;0.50;;;;;;;;;;4953785;28;20201;-54
2021/05/24 11:41:34;;;;;;;0.60;0.60;;;;;;;;;;4965018;28;20566;-55
2021/05/24 11:44:02;;;;;;;0.50;0.50;;;;;;;;;;4968070;28;20268;-55
2021/05/24 11:46:58;;;;;;;1.65;0.60;;;;;;;;;;4968473;28;20725;-54
2021/05/24 11:49:42;;;;;;;0.95;0.63;;;;;;;;;;4965738;28;20184;-53
2021/05/24 11:52:11;;;;;;;0.70;0.60;;;;;;;;;;4967579;28;20711;-53
2021/05/24 11:54:37;;;;;;;0.77;0.60;;;;;;;;;;4969599;28;20275;-56
2021/05/24 11:57:05;;;;;;;1.75;0.70;;;;;;;;;;4966748;28;20207;-53
2021/05/24 11:59:32;;;;;;;0.60;0.60;;;;;;;;;;4968298;28;20252;-54
2021/05/24 12:02:02;;;;;;;1.95;0.70;;;;;;;;;;4964916;28;20201;-55
2021/05/24 12:04:30;;;;;;;1.20;0.70;;;;;;;;;;4967618;28;20197;-54
2021/05/24 12:07:04;;;;;;;1.15;0.65;;;;;;;;;;4982126;28;20223;-51
2021/05/24 12:09:38;;;;;;;0.50;0.50;;;;;;;;;;4979493;28;20200;-54
2021/05/24 12:12:16;;;;;;;0.70;0.60;;;;;;;;;;4969113;28;20215;-54
2021/05/24 12:14:43;;;;;;;0.77;0.60;;;;;;;;;;4965201;28;20196;-53
2021/05/24 12:17:20;;;;;;;0.70;0.70;;;;;;;;;;4965573;28;20347;-54
2021/05/24 12:19:52;;;;;;;2.15;0.82;;;;;;;;;;4967194;28;20196;-56
2021/05/24 12:22:18;;;;;;;0.40;0.40;;;;;;;;;;4948560;28;20179;-55
2021/05/24 12:24:45;;;;;;;0.73;0.70;;;;;;;;;;4962574;28;20203;-54
2021/05/24 12:27:12;;;;;;;0.95;0.73;;;;;;;;;;4979420;28;20243;-54
2021/05/24 12:30:15;;;;;;;0.55;0.55;;;;;;;;;;4966176;28;20185;-55
2021/05/24 12:32:53;;;;;;;0.50;0.50;;;;;;;;;;4979455;28;20213;-54
2021/05/24 12:35:26;;;;;;;1.05;0.70;;;;;;;;;;4970951;28;20657;-55
2021/05/24 12:40:50;;;;;;;0.55;0.50;;;;;;;;;;4966502;28;20833;-52
2021/05/24 12:43:16;;;;;;;1.38;0.50;;;;;;;;;;4967217;28;20228;-53
2021/05/24 12:45:45;;;;;;;1.38;0.68;;;;;;;;;;4969412;28;20585;-56
2021/05/24 12:48:15;;;;;;;0.75;0.60;;;;;;;;;;4968159;28;20224;-53
2021/05/24 12:50:43;;;;;;;1.08;0.57;;;;;;;;;;4964927;28;20232;-53
2021/05/24 12:53:11;;;;;;;1.13;0.60;;;;;;;;;;4964658;28;20220;-54
2021/05/24 12:55:36;;;;;;;1.25;0.60;;;;;;;;;;4967566;28;20201;-55
2021/05/24 12:58:14;;;;;;;0.60;0.60;;;;;;;;;;4968319;28;20204;-55
2021/05/24 13:00:42;;;;;;;0.50;0.50;;;;;;;;;;4963801;28;20227;-52
2021/05/24 13:03:08;;;;;;;0.65;0.60;;;;;;;;;;4967414;28;20302;-55
2021/05/24 13:05:33;;;;;;;4.95;0.70;;;;;;;;;;4962700;28;20361;-52
2021/05/24 13:08:03;;;;;;;3.95;0.60;;;;;;;;;;4967998;28;20231;-52
2021/05/24 13:10:36;;;;;;;1.73;0.60;;;;;;;;;;4978604;28;20189;-53
2021/05/24 13:13:21;;;;;;;0.60;0.60;;;;;;;;;;4967583;28;20212;-52
2021/05/24 13:16:00;;;;;;;0.40;0.40;;;;;;;;;;4967288;28;20220;-52
2021/05/24 13:18:46;;;;;;;0.55;0.52;;;;;;;;;;4969783;28;20192;-54
2021/05/24 13:29:12;;;;;;;0.50;0.50;;;;;;;;;;4966604;28;20284;-54
2021/05/24 13:31:41;;;;;;;2.78;0.90;;;;;;;;;;4966349;28;20334;-51
2021/05/24 13:34:09;;;;;;;0.47;0.47;;;;;;;;;;4966313;28;20247;-53
2021/05/24 13:36:37;;;;;;;0.77;0.55;;;;;;;;;;4972797;28;20228;-52
2021/05/24 13:39:18;;;;;;;0.68;0.50;;;;;;;;;;4961925;28;20836;-54
2021/05/24 13:41:55;;;;;;;0.70;0.70;;;;;;;;;;4965316;28;20283;-55
2021/05/24 13:44:24;;;;;;;0.55;0.50;;;;;;;;;;4966741;28;20196;-54
2021/05/24 13:46:50;;;;;;;0.75;0.50;;;;;;;;;;4961733;28;20216;-53
2021/05/24 13:49:17;;;;;;;0.60;0.60;;;;;;;;;;4969163;28;20191;-53
2021/05/24 13:51:43;;;;;;;1.40;0.60;;;;;;;;;;4965228;28;20211;-52
2021/05/24 13:54:10;;;;;;;0.60;0.60;;;;;;;;;;4968593;28;20660;-52
2021/05/24 13:56:36;;;;;;;0.60;0.60;;;;;;;;;;4966280;28;20261;-53
2021/05/24 13:59:02;;;;;;;4.35;0.80;;;;;;;;;;4967834;28;20684;-53
2021/05/24 14:01:27;;;;;;;0.50;0.50;;;;;;;;;;4963379;28;20198;-52
2021/05/24 14:03:55;;;;;;;0.93;0.60;;;;;;;;;;4963591;28;20193;-53
2021/05/24 14:06:22;;;;;;;0.73;0.60;;;;;;;;;;4966791;28;20223;-52
2021/05/24 14:08:49;;;;;;;0.40;0.40;;;;;;;;;;4962878;28;20196;-54
2021/05/24 14:11:16;;;;;;;2.60;0.60;;;;;;;;;;4971493;28;20263;-54
2021/05/24 14:13:42;;;;;;;1.98;0.70;;;;;;;;;;4971568;28;20274;-54
2021/05/24 14:16:15;;;;;;;0.75;0.60;;;;;;;;;;4966805;28;20280;-53
2021/05/24 14:18:48;;;;;;;1.05;0.60;;;;;;;;;;4969477;28;20184;-53
2021/05/24 14:21:15;;;;;;;1.13;0.57;;;;;;;;;;4968733;28;20267;-56
2021/05/24 14:23:40;;;;;;;0.82;0.73;;;;;;;;;;4970528;28;20181;-53
2021/05/24 14:26:06;;;;;;;1.13;0.68;;;;;;;;;;4969434;28;20222;-51
2021/05/24 14:28:31;;;;;;;0.50;0.50;;;;;;;;;;4969667;28;20211;-53
2021/05/24 14:31:00;;;;;;;0.40;0.40;;;;;;;;;;4970719;28;20769;-53
2021/05/24 14:33:28;;;;;;;0.60;0.60;;;;;;;;;;4972413;28;20897;-54
2021/05/24 14:35:54;;;;;;;0.60;0.60;;;;;;;;;;4986203;28;20804;-54
2021/05/24 14:38:19;;;;;;;0.40;0.40;;;;;;;;;;4970991;28;20204;-53
2021/05/24 14:40:47;;;;;;;0.50;0.50;;;;;;;;;;4970322;28;20196;-54
2021/05/24 14:43:12;;;;;;;0.40;0.40;;;;;;;;;;4969854;28;20249;-54
2021/05/24 14:45:37;;;;;;;0.40;0.40;;;;;;;;;;4983578;28;20220;-52
2021/05/24 14:48:06;;;;;;;0.52;0.52;;;;;;;;;;4969319;28;20188;-53
2021/05/24 14:50:33;;;;;;;0.93;0.50;;;;;;;;;;4962498;28;20195;-52
2021/05/24 14:53:02;;;;;;;0.50;0.50;;;;;;;;;;4970709;28;20204;-54
2021/05/24 14:55:30;;;;;;;0.40;0.40;;;;;;;;;;4969829;28;20193;-53
2021/05/24 14:57:59;;;;;;;0.52;0.52;;;;;;;;;;4984259;28;20204;-53
2021/05/24 15:00:24;;;;;;;0.70;0.50;;;;;;;;;;4970997;28;20280;-54
2021/05/24 15:02:50;;;;;;;0.73;0.50;;;;;;;;;;4971440;28;20256;-53
2021/05/24 15:05:17;;;;;;;0.70;0.65;;;;;;;;;;4970679;28;20185;-55
2021/05/24 15:07:45;;;;;;;0.50;0.50;;;;;;;;;;4970196;28;20194;-54